sensor_id;sensor_type;location;lat;lon;timestamp;temperature;humidity
15983;DHT22;14442;50.196;8.096;2023-04-28T00:01:22;21.60;43.20
15983;DHT22;14442;50.196;8.096;2023-04-28T00:03:50;21.50;43.10
15983;DHT22;14442;50.196;8.096;2023-04-28T00:06:17;21.50;43.10
15983;DHT22;14442;50.196;8.096;2023-04-28T00:08:44;21.50;43.10
15983;DHT22;14442;50.196;8.096;2023-04-28T00:11:11;21.50;43.00
15983;DHT22;14442;50.196;8.096;2023-04-28T00:13:38;21.50;42.90
15983;DHT22;14442;50.196;8.096;2023-04-28T00:16:06;21.50;42.90
15983;DHT22;14442;50.196;8.096;2023-04-28T00:18:33;21.50;42.90
15983;DHT22;14442;50.196;8.096;2023-04-28T00:21:00;21.50;42.90
15983;DHT22;14442;50.196;8.096;2023-04-28T00:23:26;21.50;42.90
15983;DHT22;14442;50.196;8.096;2023-04-28T00:25:54;21.50;42.90
15983;DHT22;14442;50.196;8.096;2023-04-28T00:28:22;21.40;42.80
15983;DHT22;14442;50.196;8.096;2023-04-28T00:30:48;21.40;42.90
15983;DHT22;14442;50.196;8.096;2023-04-28T00:33:16;21.40;42.80
15983;DHT22;14442;50.196;8.096;2023-04-28T00:35:43;21.40;42.80
15983;DHT22;14442;50.196;8.096;2023-04-28T00:38:09;21.40;42.80
15983;DHT22;14442;50.196;8.096;2023-04-28T00:40:37;21.40;43.50
15983;DHT22;14442;50.196;8.096;2023-04-28T00:43:05;21.40;42.90
15983;DHT22;14442;50.196;8.096;2023-04-28T00:45:31;21.40;42.90
15983;DHT22;14442;50.196;8.096;2023-04-28T00:47:58;21.40;42.90
15983;DHT22;14442;50.196;8.096;2023-04-28T00:50:27;21.30;42.80
15983;DHT22;14442;50.196;8.096;2023-04-28T00:52:54;21.30;42.80
15983;DHT22;14442;50.196;8.096;2023-04-28T00:55:21;21.30;42.90
15983;DHT22;14442;50.196;8.096;2023-04-28T00:57:47;21.30;42.80
15983;DHT22;14442;50.196;8.096;2023-04-28T01:00:14;21.30;42.80
15983;DHT22;14442;50.196;8.096;2023-04-28T01:02:41;21.30;42.70
15983;DHT22;14442;50.196;8.096;2023-04-28T01:05:08;21.20;42.70
15983;DHT22;14442;50.196;8.096;2023-04-28T01:07:36;21.30;42.80
15983;DHT22;14442;50.196;8.096;2023-04-28T01:10:03;21.30;42.80
15983;DHT22;14442;50.196;8.096;2023-04-28T01:12:31;21.30;42.80
15983;DHT22;14442;50.196;8.096;2023-04-28T01:14:58;21.30;42.80
15983;DHT22;14442;50.196;8.096;2023-04-28T01:17:25;21.20;42.70
15983;DHT22;14442;50.196;8.096;2023-04-28T01:19:52;21.30;42.80
15983;DHT22;14442;50.196;8.096;2023-04-28T01:22:18;21.20;42.70
15983;DHT22;14442;50.196;8.096;2023-04-28T01:24:46;21.20;42.80
15983;DHT22;14442;50.196;8.096;2023-04-28T01:27:13;21.20;42.80
15983;DHT22;14442;50.196;8.096;2023-04-28T01:29:43;21.20;42.80
15983;DHT22;14442;50.196;8.096;2023-04-28T01:32:10;21.20;42.80
15983;DHT22;14442;50.196;8.096;2023-04-28T01:34:37;21.20;42.70
15983;DHT22;14442;50.196;8.096;2023-04-28T01:37:03;21.20;42.80
15983;DHT22;14442;50.196;8.096;2023-04-28T01:39:30;21.20;42.80
15983;DHT22;14442;50.196;8.096;2023-04-28T01:41:58;21.20;42.80
15983;DHT22;14442;50.196;8.096;2023-04-28T01:44:25;21.10;42.70
15983;DHT22;14442;50.196;8.096;2023-04-28T01:46:51;21.10;42.70
15983;DHT22;14442;50.196;8.096;2023-04-28T01:49:18;21.10;42.70
15983;DHT22;14442;50.196;8.096;2023-04-28T01:51:45;21.10;42.70
15983;DHT22;14442;50.196;8.096;2023-04-28T01:54:11;21.10;42.80
15983;DHT22;14442;50.196;8.096;2023-04-28T01:56:38;21.10;42.80
15983;DHT22;14442;50.196;8.096;2023-04-28T01:59:06;21.10;42.80
15983;DHT22;14442;50.196;8.096;2023-04-28T02:01:33;21.10;42.80
15983;DHT22;14442;50.196;8.096;2023-04-28T02:04:00;21.00;42.70
15983;DHT22;14442;50.196;8.096;2023-04-28T02:06:26;21.00;42.80
15983;DHT22;14442;50.196;8.096;2023-04-28T02:08:53;21.00;42.80
15983;DHT22;14442;50.196;8.096;2023-04-28T02:11:20;21.00;42.80
15983;DHT22;14442;50.196;8.096;2023-04-28T02:13:47;21.00;42.80
15983;DHT22;14442;50.196;8.096;2023-04-28T02:16:14;21.00;42.80
15983;DHT22;14442;50.196;8.096;2023-04-28T02:18:41;21.00;42.80
15983;DHT22;14442;50.196;8.096;2023-04-28T02:21:08;21.00;42.80
15983;DHT22;14442;50.196;8.096;2023-04-28T02:23:36;21.00;42.80
15983;DHT22;14442;50.196;8.096;2023-04-28T02:26:03;20.90;42.80
15983;DHT22;14442;50.196;8.096;2023-04-28T02:28:29;20.90;42.80
15983;DHT22;14442;50.196;8.096;2023-04-28T02:31:03;20.90;42.80
15983;DHT22;14442;50.196;8.096;2023-04-28T02:33:31;20.90;42.80
15983;DHT22;14442;50.196;8.096;2023-04-28T02:35:58;20.90;43.40
15983;DHT22;14442;50.196;8.096;2023-04-28T02:38:25;20.90;42.80
15983;DHT22;14442;50.196;8.096;2023-04-28T02:40:56;20.90;42.80
15983;DHT22;14442;50.196;8.096;2023-04-28T02:43:23;20.90;42.90
15983;DHT22;14442;50.196;8.096;2023-04-28T02:45:50;20.90;42.80
15983;DHT22;14442;50.196;8.096;2023-04-28T02:48:17;20.90;42.80
15983;DHT22;14442;50.196;8.096;2023-04-28T02:50:45;20.90;42.90
15983;DHT22;14442;50.196;8.096;2023-04-28T02:53:12;20.80;42.80
15983;DHT22;14442;50.196;8.096;2023-04-28T02:55:38;20.80;42.80
15983;DHT22;14442;50.196;8.096;2023-04-28T02:58:05;20.80;42.80
15983;DHT22;14442;50.196;8.096;2023-04-28T03:00:32;20.80;42.80
15983;DHT22;14442;50.196;8.096;2023-04-28T03:02:58;20.80;42.80
15983;DHT22;14442;50.196;8.096;2023-04-28T03:05:26;20.80;42.90
15983;DHT22;14442;50.196;8.096;2023-04-28T03:07:54;20.80;42.80
15983;DHT22;14442;50.196;8.096;2023-04-28T03:10:21;20.80;42.80
15983;DHT22;14442;50.196;8.096;2023-04-28T03:12:47;20.70;42.80
15983;DHT22;14442;50.196;8.096;2023-04-28T03:15:14;20.70;42.80
15983;DHT22;14442;50.196;8.096;2023-04-28T03:17:41;20.70;42.80
15983;DHT22;14442;50.196;8.096;2023-04-28T03:20:09;20.70;42.80
15983;DHT22;14442;50.196;8.096;2023-04-28T03:22:36;20.70;42.80
15983;DHT22;14442;50.196;8.096;2023-04-28T03:25:04;20.70;42.80
15983;DHT22;14442;50.196;8.096;2023-04-28T03:27:31;20.70;42.80
15983;DHT22;14442;50.196;8.096;2023-04-28T03:29:58;20.70;42.80
15983;DHT22;14442;50.196;8.096;2023-04-28T03:32:25;20.70;42.80
15983;DHT22;14442;50.196;8.096;2023-04-28T03:34:51;20.70;43.00
15983;DHT22;14442;50.196;8.096;2023-04-28T03:37:18;20.80;42.90
15983;DHT22;14442;50.196;8.096;2023-04-28T03:39:47;20.70;42.80
15983;DHT22;14442;50.196;8.096;2023-04-28T03:42:15;20.70;42.90
15983;DHT22;14442;50.196;8.096;2023-04-28T03:44:41;20.60;42.80
15983;DHT22;14442;50.196;8.096;2023-04-28T03:47:08;20.60;42.80
15983;DHT22;14442;50.196;8.096;2023-04-28T03:49:35;20.60;42.80
15983;DHT22;14442;50.196;8.096;2023-04-28T03:52:01;20.60;42.80
15983;DHT22;14442;50.196;8.096;2023-04-28T03:54:28;20.60;42.80
15983;DHT22;14442;50.196;8.096;2023-04-28T03:56:55;20.70;42.90
15983;DHT22;14442;50.196;8.096;2023-04-28T03:59:23;20.60;42.80
15983;DHT22;14442;50.196;8.096;2023-04-28T04:01:50;20.60;42.80
15983;DHT22;14442;50.196;8.096;2023-04-28T04:04:16;20.60;42.80
15983;DHT22;14442;50.196;8.096;2023-04-28T04:06:43;20.60;42.80
15983;DHT22;14442;50.196;8.096;2023-04-28T04:09:10;20.60;42.80
15983;DHT22;14442;50.196;8.096;2023-04-28T04:11:37;20.60;43.40
15983;DHT22;14442;50.196;8.096;2023-04-28T04:14:03;20.60;42.80
15983;DHT22;14442;50.196;8.096;2023-04-28T04:16:32;20.60;42.80
15983;DHT22;14442;50.196;8.096;2023-04-28T04:18:58;20.60;42.80
15983;DHT22;14442;50.196;8.096;2023-04-28T04:21:25;20.60;42.80
15983;DHT22;14442;50.196;8.096;2023-04-28T04:23:52;20.60;42.80
15983;DHT22;14442;50.196;8.096;2023-04-28T04:26:18;20.60;42.90
15983;DHT22;14442;50.196;8.096;2023-04-28T04:28:46;20.60;42.80
15983;DHT22;14442;50.196;8.096;2023-04-28T04:31:12;20.50;42.70
15983;DHT22;14442;50.196;8.096;2023-04-28T04:33:40;20.50;42.80
15983;DHT22;14442;50.196;8.096;2023-04-28T04:36:08;20.50;42.70
15983;DHT22;14442;50.196;8.096;2023-04-28T04:38:34;20.50;42.80
15983;DHT22;14442;50.196;8.096;2023-04-28T04:41:04;20.50;42.80
15983;DHT22;14442;50.196;8.096;2023-04-28T04:43:31;20.50;42.80
15983;DHT22;14442;50.196;8.096;2023-04-28T04:45:58;20.50;42.80
15983;DHT22;14442;50.196;8.096;2023-04-28T04:48:24;20.50;42.80
15983;DHT22;14442;50.196;8.096;2023-04-28T04:50:52;20.50;42.80
15983;DHT22;14442;50.196;8.096;2023-04-28T04:53:19;20.50;42.80
15983;DHT22;14442;50.196;8.096;2023-04-28T04:55:46;20.50;42.80
15983;DHT22;14442;50.196;8.096;2023-04-28T04:58:12;20.50;42.80
15983;DHT22;14442;50.196;8.096;2023-04-28T05:00:39;20.50;42.80
15983;DHT22;14442;50.196;8.096;2023-04-28T05:03:06;20.40;42.70
15983;DHT22;14442;50.196;8.096;2023-04-28T05:05:33;20.40;42.80
15983;DHT22;14442;50.196;8.096;2023-04-28T05:08:02;20.40;42.70
15983;DHT22;14442;50.196;8.096;2023-04-28T05:10:30;20.40;42.80
15983;DHT22;14442;50.196;8.096;2023-04-28T05:12:57;20.40;42.80
15983;DHT22;14442;50.196;8.096;2023-04-28T05:15:23;20.40;42.80
15983;DHT22;14442;50.196;8.096;2023-04-28T05:17:50;20.40;42.80
15983;DHT22;14442;50.196;8.096;2023-04-28T05:20:17;20.40;42.80
15983;DHT22;14442;50.196;8.096;2023-04-28T05:22:44;20.40;42.80
15983;DHT22;14442;50.196;8.096;2023-04-28T05:25:12;20.40;42.90
15983;DHT22;14442;50.196;8.096;2023-04-28T05:27:38;20.40;42.90
15983;DHT22;14442;50.196;8.096;2023-04-28T05:30:07;20.30;42.90
15983;DHT22;14442;50.196;8.096;2023-04-28T05:32:35;20.30;43.00
15983;DHT22;14442;50.196;8.096;2023-04-28T05:35:03;20.30;43.10
15983;DHT22;14442;50.196;8.096;2023-04-28T05:37:30;20.30;43.20
15983;DHT22;14442;50.196;8.096;2023-04-28T05:39:56;20.30;43.20
15983;DHT22;14442;50.196;8.096;2023-04-28T05:42:24;20.30;43.10
15983;DHT22;14442;50.196;8.096;2023-04-28T05:44:51;20.30;43.30
15983;DHT22;14442;50.196;8.096;2023-04-28T05:47:18;20.40;43.50
15983;DHT22;14442;50.196;8.096;2023-04-28T05:49:44;20.30;43.30
15983;DHT22;14442;50.196;8.096;2023-04-28T05:52:11;20.40;43.30
15983;DHT22;14442;50.196;8.096;2023-04-28T05:54:38;20.40;43.40
15983;DHT22;14442;50.196;8.096;2023-04-28T05:57:04;20.40;43.30
15983;DHT22;14442;50.196;8.096;2023-04-28T05:59:32;20.40;43.40
15983;DHT22;14442;50.196;8.096;2023-04-28T06:01:59;20.40;43.60
15983;DHT22;14442;50.196;8.096;2023-04-28T06:04:26;20.40;43.40
15983;DHT22;14442;50.196;8.096;2023-04-28T06:06:52;20.40;43.50
15983;DHT22;14442;50.196;8.096;2023-04-28T06:09:19;20.40;43.50
15983;DHT22;14442;50.196;8.096;2023-04-28T06:11:46;20.40;43.50
15983;DHT22;14442;50.196;8.096;2023-04-28T06:14:13;20.30;43.40
15983;DHT22;14442;50.196;8.096;2023-04-28T06:16:41;20.40;43.50
15983;DHT22;14442;50.196;8.096;2023-04-28T06:19:08;20.40;44.10
15983;DHT22;14442;50.196;8.096;2023-04-28T06:21:35;20.40;43.60
15983;DHT22;14442;50.196;8.096;2023-04-28T06:24:01;20.40;44.10
15983;DHT22;14442;50.196;8.096;2023-04-28T06:26:28;20.40;44.00
15983;DHT22;14442;50.196;8.096;2023-04-28T06:28:55;20.30;43.80
15983;DHT22;14442;50.196;8.096;2023-04-28T06:31:22;20.30;43.60
15983;DHT22;14442;50.196;8.096;2023-04-28T06:33:49;20.30;43.60
15983;DHT22;14442;50.196;8.096;2023-04-28T06:36:16;20.30;43.60
15983;DHT22;14442;50.196;8.096;2023-04-28T06:38:43;20.20;43.60
15983;DHT22;14442;50.196;8.096;2023-04-28T06:41:10;20.20;44.00
15983;DHT22;14442;50.196;8.096;2023-04-28T06:43:37;20.30;44.20
15983;DHT22;14442;50.196;8.096;2023-04-28T06:46:03;20.30;44.80
15983;DHT22;14442;50.196;8.096;2023-04-28T06:48:30;20.30;44.20
15983;DHT22;14442;50.196;8.096;2023-04-28T06:50:58;20.30;44.20
15983;DHT22;14442;50.196;8.096;2023-04-28T06:53:25;20.30;44.20
15983;DHT22;14442;50.196;8.096;2023-04-28T06:55:52;20.20;44.00
15983;DHT22;14442;50.196;8.096;2023-04-28T06:58:19;20.20;44.40
15983;DHT22;14442;50.196;8.096;2023-04-28T07:00:46;20.20;44.30
15983;DHT22;14442;50.196;8.096;2023-04-28T07:03:12;20.20;44.30
15983;DHT22;14442;50.196;8.096;2023-04-28T07:05:39;20.20;44.40
15983;DHT22;14442;50.196;8.096;2023-04-28T07:08:07;20.20;44.40
15983;DHT22;14442;50.196;8.096;2023-04-28T07:10:34;20.30;44.60
15983;DHT22;14442;50.196;8.096;2023-04-28T07:13:01;20.30;44.90
15983;DHT22;14442;50.196;8.096;2023-04-28T07:15:27;20.20;45.00
15983;DHT22;14442;50.196;8.096;2023-04-28T07:17:54;20.20;45.30
15983;DHT22;14442;50.196;8.096;2023-04-28T07:20:21;20.30;45.50
15983;DHT22;14442;50.196;8.096;2023-04-28T07:22:47;20.20;45.30
15983;DHT22;14442;50.196;8.096;2023-04-28T07:25:15;20.30;45.30
15983;DHT22;14442;50.196;8.096;2023-04-28T07:27:42;20.30;45.50
15983;DHT22;14442;50.196;8.096;2023-04-28T07:30:09;20.30;45.60
15983;DHT22;14442;50.196;8.096;2023-04-28T07:32:36;20.30;45.40
15983;DHT22;14442;50.196;8.096;2023-04-28T07:35:03;20.30;45.60
15983;DHT22;14442;50.196;8.096;2023-04-28T07:37:30;20.30;45.70
15983;DHT22;14442;50.196;8.096;2023-04-28T07:39:56;20.30;45.70
15983;DHT22;14442;50.196;8.096;2023-04-28T07:42:24;20.30;45.70
15983;DHT22;14442;50.196;8.096;2023-04-28T07:44:51;20.40;45.90
15983;DHT22;14442;50.196;8.096;2023-04-28T07:47:18;20.40;45.90
15983;DHT22;14442;50.196;8.096;2023-04-28T07:49:45;20.40;46.00
15983;DHT22;14442;50.196;8.096;2023-04-28T07:52:12;20.40;45.80
15983;DHT22;14442;50.196;8.096;2023-04-28T07:54:38;20.30;45.60
15983;DHT22;14442;50.196;8.096;2023-04-28T07:57:05;20.30;45.40
15983;DHT22;14442;50.196;8.096;2023-04-28T07:59:33;20.30;45.30
15983;DHT22;14442;50.196;8.096;2023-04-28T08:02:00;20.30;45.60
15983;DHT22;14442;50.196;8.096;2023-04-28T08:04:27;20.30;45.80
15983;DHT22;14442;50.196;8.096;2023-04-28T08:06:55;20.30;45.70
15983;DHT22;14442;50.196;8.096;2023-04-28T08:09:22;20.30;45.90
15983;DHT22;14442;50.196;8.096;2023-04-28T08:11:49;20.40;46.20
15983;DHT22;14442;50.196;8.096;2023-04-28T08:14:15;20.50;46.50
15983;DHT22;14442;50.196;8.096;2023-04-28T08:16:44;20.50;46.30
15983;DHT22;14442;50.196;8.096;2023-04-28T08:19:11;20.40;46.30
15983;DHT22;14442;50.196;8.096;2023-04-28T08:21:38;20.40;45.90
15983;DHT22;14442;50.196;8.096;2023-04-28T08:24:05;20.40;45.80
15983;DHT22;14442;50.196;8.096;2023-04-28T08:26:32;20.40;45.60
15983;DHT22;14442;50.196;8.096;2023-04-28T08:28:59;20.40;45.50
15983;DHT22;14442;50.196;8.096;2023-04-28T08:31:26;20.30;45.30
15983;DHT22;14442;50.196;8.096;2023-04-28T08:33:54;20.30;45.30
15983;DHT22;14442;50.196;8.096;2023-04-28T08:36:21;20.40;45.30
15983;DHT22;14442;50.196;8.096;2023-04-28T08:38:48;20.40;45.20
15983;DHT22;14442;50.196;8.096;2023-04-28T08:41:15;20.40;45.10
15983;DHT22;14442;50.196;8.096;2023-04-28T08:43:42;20.40;45.10
15983;DHT22;14442;50.196;8.096;2023-04-28T08:46:10;20.50;45.10
15983;DHT22;14442;50.196;8.096;2023-04-28T08:48:39;20.50;45.00
15983;DHT22;14442;50.196;8.096;2023-04-28T08:51:09;20.50;44.90
15983;DHT22;14442;50.196;8.096;2023-04-28T08:53:39;20.60;45.00
15983;DHT22;14442;50.196;8.096;2023-04-28T08:56:09;20.60;44.90
15983;DHT22;14442;50.196;8.096;2023-04-28T08:58:38;20.60;44.80
15983;DHT22;14442;50.196;8.096;2023-04-28T09:01:05;20.60;44.80
15983;DHT22;14442;50.196;8.096;2023-04-28T09:03:31;20.70;44.80
15983;DHT22;14442;50.196;8.096;2023-04-28T09:05:59;20.60;44.60
15983;DHT22;14442;50.196;8.096;2023-04-28T09:08:28;20.70;44.70
15983;DHT22;14442;50.196;8.096;2023-04-28T09:11:08;20.70;44.60
15983;DHT22;14442;50.196;8.096;2023-04-28T09:13:35;20.70;44.70
15983;DHT22;14442;50.196;8.096;2023-04-28T09:16:05;20.70;44.70
15983;DHT22;14442;50.196;8.096;2023-04-28T09:18:32;20.80;44.70
15983;DHT22;14442;50.196;8.096;2023-04-28T09:21:03;20.90;44.70
15983;DHT22;14442;50.196;8.096;2023-04-28T09:23:32;20.90;44.70
15983;DHT22;14442;50.196;8.096;2023-04-28T09:26:00;20.90;44.70
15983;DHT22;14442;50.196;8.096;2023-04-28T09:28:27;20.90;44.70
15983;DHT22;14442;50.196;8.096;2023-04-28T09:30:54;20.90;44.60
15983;DHT22;14442;50.196;8.096;2023-04-28T09:33:21;21.00;44.70
15983;DHT22;14442;50.196;8.096;2023-04-28T09:35:48;21.00;44.60
15983;DHT22;14442;50.196;8.096;2023-04-28T09:38:15;21.00;44.60
15983;DHT22;14442;50.196;8.096;2023-04-28T09:40:51;21.00;44.50
15983;DHT22;14442;50.196;8.096;2023-04-28T09:43:28;21.10;44.70
15983;DHT22;14442;50.196;8.096;2023-04-28T09:45:59;21.10;44.60
15983;DHT22;14442;50.196;8.096;2023-04-28T09:48:27;21.10;44.60
15983;DHT22;14442;50.196;8.096;2023-04-28T09:50:55;21.20;44.70
15983;DHT22;14442;50.196;8.096;2023-04-28T09:53:24;21.20;44.70
15983;DHT22;14442;50.196;8.096;2023-04-28T09:55:53;21.20;44.60
15983;DHT22;14442;50.196;8.096;2023-04-28T09:58:21;21.20;44.60
15983;DHT22;14442;50.196;8.096;2023-04-28T10:00:51;21.20;44.60
15983;DHT22;14442;50.196;8.096;2023-04-28T10:03:20;21.30;44.70
15983;DHT22;14442;50.196;8.096;2023-04-28T10:05:48;21.30;44.70
15983;DHT22;14442;50.196;8.096;2023-04-28T10:08:15;21.30;44.70
15983;DHT22;14442;50.196;8.096;2023-04-28T10:10:44;21.40;44.70
15983;DHT22;14442;50.196;8.096;2023-04-28T10:13:15;21.40;44.70
15983;DHT22;14442;50.196;8.096;2023-04-28T10:15:42;21.40;44.70
15983;DHT22;14442;50.196;8.096;2023-04-28T10:18:10;21.40;44.70
15983;DHT22;14442;50.196;8.096;2023-04-28T10:20:37;21.40;44.70
15983;DHT22;14442;50.196;8.096;2023-04-28T10:23:16;21.50;44.70
15983;DHT22;14442;50.196;8.096;2023-04-28T10:25:48;21.40;44.70
15983;DHT22;14442;50.196;8.096;2023-04-28T10:28:19;21.30;44.70
15983;DHT22;14442;50.196;8.096;2023-04-28T10:31:10;21.40;44.90
15983;DHT22;14442;50.196;8.096;2023-04-28T10:33:37;21.40;45.00
15983;DHT22;14442;50.196;8.096;2023-04-28T10:36:05;21.40;45.00
15983;DHT22;14442;50.196;8.096;2023-04-28T10:38:32;21.40;45.00
15983;DHT22;14442;50.196;8.096;2023-04-28T10:40:59;21.50;45.20
15983;DHT22;14442;50.196;8.096;2023-04-28T10:43:38;21.50;45.00
15983;DHT22;14442;50.196;8.096;2023-04-28T10:46:08;21.50;45.00
15983;DHT22;14442;50.196;8.096;2023-04-28T10:48:55;21.40;44.90
15983;DHT22;14442;50.196;8.096;2023-04-28T10:51:32;21.50;44.90
15983;DHT22;14442;50.196;8.096;2023-04-28T10:54:09;21.50;44.90
15983;DHT22;14442;50.196;8.096;2023-04-28T10:56:35;21.50;44.90
15983;DHT22;14442;50.196;8.096;2023-04-28T10:59:24;21.50;44.90
15983;DHT22;14442;50.196;8.096;2023-04-28T11:01:50;21.60;44.90
15983;DHT22;14442;50.196;8.096;2023-04-28T11:04:17;21.50;44.90
15983;DHT22;14442;50.196;8.096;2023-04-28T11:06:45;21.50;44.80
15983;DHT22;14442;50.196;8.096;2023-04-28T11:09:45;21.50;44.90
15983;DHT22;14442;50.196;8.096;2023-04-28T11:12:14;21.60;45.00
15983;DHT22;14442;50.196;8.096;2023-04-28T11:14:42;21.60;44.90
15983;DHT22;14442;50.196;8.096;2023-04-28T11:17:10;21.60;45.00
15983;DHT22;14442;50.196;8.096;2023-04-28T11:19:40;21.60;45.00
15983;DHT22;14442;50.196;8.096;2023-04-28T11:22:13;21.60;44.90
15983;DHT22;14442;50.196;8.096;2023-04-28T11:24:40;21.60;45.00
15983;DHT22;14442;50.196;8.096;2023-04-28T11:27:07;21.70;45.00
15983;DHT22;14442;50.196;8.096;2023-04-28T11:29:35;21.70;45.00
15983;DHT22;14442;50.196;8.096;2023-04-28T11:32:04;21.70;45.00
15983;DHT22;14442;50.196;8.096;2023-04-28T11:34:32;21.70;45.00
15983;DHT22;14442;50.196;8.096;2023-04-28T11:36:59;21.70;45.00
15983;DHT22;14442;50.196;8.096;2023-04-28T11:39:27;21.70;45.00
15983;DHT22;14442;50.196;8.096;2023-04-28T11:41:55;21.70;45.10
15983;DHT22;14442;50.196;8.096;2023-04-28T11:44:23;21.70;45.10
15983;DHT22;14442;50.196;8.096;2023-04-28T11:46:51;21.70;45.20
15983;DHT22;14442;50.196;8.096;2023-04-28T11:49:22;21.70;45.20
15983;DHT22;14442;50.196;8.096;2023-04-28T11:51:50;21.70;45.20
15983;DHT22;14442;50.196;8.096;2023-04-28T11:54:21;21.70;45.20
15983;DHT22;14442;50.196;8.096;2023-04-28T11:56:48;21.70;45.20
15983;DHT22;14442;50.196;8.096;2023-04-28T11:59:15;21.70;45.20
15983;DHT22;14442;50.196;8.096;2023-04-28T12:01:47;21.70;45.20
15983;DHT22;14442;50.196;8.096;2023-04-28T12:04:26;21.70;45.20
15983;DHT22;14442;50.196;8.096;2023-04-28T12:07:01;21.80;45.30
15983;DHT22;14442;50.196;8.096;2023-04-28T12:09:29;21.80;45.20
15983;DHT22;14442;50.196;8.096;2023-04-28T12:11:57;21.80;45.90
15983;DHT22;14442;50.196;8.096;2023-04-28T12:14:24;21.80;45.30
15983;DHT22;14442;50.196;8.096;2023-04-28T12:16:51;21.80;45.40
15983;DHT22;14442;50.196;8.096;2023-04-28T12:19:18;21.80;45.50
15983;DHT22;14442;50.196;8.096;2023-04-28T12:22:02;21.80;45.50
15983;DHT22;14442;50.196;8.096;2023-04-28T12:24:29;21.90;45.60
15983;DHT22;14442;50.196;8.096;2023-04-28T12:27:14;21.90;45.70
15983;DHT22;14442;50.196;8.096;2023-04-28T12:29:42;21.90;45.70
15983;DHT22;14442;50.196;8.096;2023-04-28T12:32:11;21.90;45.70
15983;DHT22;14442;50.196;8.096;2023-04-28T12:34:39;21.90;45.70
15983;DHT22;14442;50.196;8.096;2023-04-28T12:37:07;21.80;45.70
15983;DHT22;14442;50.196;8.096;2023-04-28T12:39:38;21.70;45.70
15983;DHT22;14442;50.196;8.096;2023-04-28T12:42:06;21.70;45.90
15983;DHT22;14442;50.196;8.096;2023-04-28T12:44:33;21.60;46.00
15983;DHT22;14442;50.196;8.096;2023-04-28T12:47:02;21.70;46.20
15983;DHT22;14442;50.196;8.096;2023-04-28T12:49:28;21.70;46.30
15983;DHT22;14442;50.196;8.096;2023-04-28T12:51:55;21.80;46.70
15983;DHT22;14442;50.196;8.096;2023-04-28T12:54:23;21.80;47.10
15983;DHT22;14442;50.196;8.096;2023-04-28T12:56:51;21.90;47.50
15983;DHT22;14442;50.196;8.096;2023-04-28T12:59:19;21.90;47.40
15983;DHT22;14442;50.196;8.096;2023-04-28T13:01:45;21.90;47.30
15983;DHT22;14442;50.196;8.096;2023-04-28T13:04:12;21.90;47.30
15983;DHT22;14442;50.196;8.096;2023-04-28T13:06:39;21.90;47.30
15983;DHT22;14442;50.196;8.096;2023-04-28T13:09:08;21.90;47.20
15983;DHT22;14442;50.196;8.096;2023-04-28T13:11:36;21.90;47.10
15983;DHT22;14442;50.196;8.096;2023-04-28T13:14:03;21.90;47.00
15983;DHT22;14442;50.196;8.096;2023-04-28T13:16:30;21.90;46.90
15983;DHT22;14442;50.196;8.096;2023-04-28T13:18:57;21.90;46.80
15983;DHT22;14442;50.196;8.096;2023-04-28T13:21:24;21.90;46.70
15983;DHT22;14442;50.196;8.096;2023-04-28T13:23:51;21.90;46.60
15983;DHT22;14442;50.196;8.096;2023-04-28T13:26:18;21.90;46.70
15983;DHT22;14442;50.196;8.096;2023-04-28T13:28:46;21.90;46.60
15983;DHT22;14442;50.196;8.096;2023-04-28T13:31:13;21.90;46.60
15983;DHT22;14442;50.196;8.096;2023-04-28T13:33:40;21.80;46.40
15983;DHT22;14442;50.196;8.096;2023-04-28T13:36:07;21.80;46.40
15983;DHT22;14442;50.196;8.096;2023-04-28T13:38:34;21.80;46.40
15983;DHT22;14442;50.196;8.096;2023-04-28T13:41:01;21.80;46.40
15983;DHT22;14442;50.196;8.096;2023-04-28T13:43:28;21.80;46.40
15983;DHT22;14442;50.196;8.096;2023-04-28T13:45:56;21.80;46.30
15983;DHT22;14442;50.196;8.096;2023-04-28T13:48:23;21.80;46.30
15983;DHT22;14442;50.196;8.096;2023-04-28T13:50:52;21.80;46.20
15983;DHT22;14442;50.196;8.096;2023-04-28T13:53:18;21.80;46.20
15983;DHT22;14442;50.196;8.096;2023-04-28T13:55:45;21.80;46.20
15983;DHT22;14442;50.196;8.096;2023-04-28T13:58:12;21.70;46.10
15983;DHT22;14442;50.196;8.096;2023-04-28T14:00:38;21.80;46.10
15983;DHT22;14442;50.196;8.096;2023-04-28T14:03:06;21.80;46.00
15983;DHT22;14442;50.196;8.096;2023-04-28T14:05:33;21.80;45.90
15983;DHT22;14442;50.196;8.096;2023-04-28T14:08:01;21.90;46.60
15983;DHT22;14442;50.196;8.096;2023-04-28T14:10:28;21.90;46.00
15983;DHT22;14442;50.196;8.096;2023-04-28T14:12:55;22.00;46.10
15983;DHT22;14442;50.196;8.096;2023-04-28T14:15:24;22.00;46.20
15983;DHT22;14442;50.196;8.096;2023-04-28T14:17:52;22.00;46.20
15983;DHT22;14442;50.196;8.096;2023-04-28T14:20:20;22.00;46.30
15983;DHT22;14442;50.196;8.096;2023-04-28T14:22:46;22.00;46.40
15983;DHT22;14442;50.196;8.096;2023-04-28T14:25:13;22.00;46.40
15983;DHT22;14442;50.196;8.096;2023-04-28T14:27:40;22.00;46.40
15983;DHT22;14442;50.196;8.096;2023-04-28T14:30:07;22.00;46.60
15983;DHT22;14442;50.196;8.096;2023-04-28T14:32:34;22.00;46.60
15983;DHT22;14442;50.196;8.096;2023-04-28T14:35:01;21.90;46.60
15983;DHT22;14442;50.196;8.096;2023-04-28T14:37:31;21.90;46.70
15983;DHT22;14442;50.196;8.096;2023-04-28T14:39:58;21.80;46.60
15983;DHT22;14442;50.196;8.096;2023-04-28T14:42:27;21.90;46.50
15983;DHT22;14442;50.196;8.096;2023-04-28T14:44:54;21.90;46.50
15983;DHT22;14442;50.196;8.096;2023-04-28T14:47:21;21.90;46.40
15983;DHT22;14442;50.196;8.096;2023-04-28T14:49:49;22.00;46.50
15983;DHT22;14442;50.196;8.096;2023-04-28T14:52:17;22.00;46.40
15983;DHT22;14442;50.196;8.096;2023-04-28T14:54:45;22.00;46.50
15983;DHT22;14442;50.196;8.096;2023-04-28T14:57:12;22.00;46.70
15983;DHT22;14442;50.196;8.096;2023-04-28T14:59:39;21.90;46.60
15983;DHT22;14442;50.196;8.096;2023-04-28T15:02:06;22.00;46.50
15983;DHT22;14442;50.196;8.096;2023-04-28T15:04:33;22.00;46.50
15983;DHT22;14442;50.196;8.096;2023-04-28T15:07:00;22.00;46.70
15983;DHT22;14442;50.196;8.096;2023-04-28T15:09:27;21.90;46.70
15983;DHT22;14442;50.196;8.096;2023-04-28T15:11:56;21.90;46.80
15983;DHT22;14442;50.196;8.096;2023-04-28T15:14:22;21.90;46.90
15983;DHT22;14442;50.196;8.096;2023-04-28T15:16:49;21.80;46.70
15983;DHT22;14442;50.196;8.096;2023-04-28T15:19:16;21.80;46.80
15983;DHT22;14442;50.196;8.096;2023-04-28T15:21:42;21.80;46.70
15983;DHT22;14442;50.196;8.096;2023-04-28T15:24:09;21.80;46.70
15983;DHT22;14442;50.196;8.096;2023-04-28T15:26:36;21.80;46.70
15983;DHT22;14442;50.196;8.096;2023-04-28T15:29:04;21.80;46.70
15983;DHT22;14442;50.196;8.096;2023-04-28T15:31:32;21.70;46.50
15983;DHT22;14442;50.196;8.096;2023-04-28T15:33:58;21.70;46.50